Kennydale, Washington
Current Conditions -  °F | °C
As of 2:53 PM on Saturday 25 Oct 2014 (Local Time) from KRNT Reporting Station
Light Rain Light Rain  
Wind Chill: 57°   Ceiling: 7000
Heat Index: 57°   Visibility: 10mi
Dew Point: 56°   Wind: 0mph
Humidity: 96%   Direction: NA
Pressure: 29.3"   Gusts: NA
Location:  47.5152°N, 122.184°W
Report Text: KRNT 252153Z 00000KT 10SM -RA OVC070 14/13 A2930 RMK AO2 RAB2058 SLP926 P0000 T01390133
Loading
Personal Weather Stations






























Interactive Weather Map New forecast layout! Learn more

10-Day Weather Forecast

Advertisements
Track Severe Weather on mobile